Time;durP1;ratioP1;P1;durP2;ratioP2;P2;SDS_P1;SDS_P2;PMS_P1;PMS_P2;Temp;Humidity;BMP_temperature;BMP_pressure;BME280_temperature;BME280_humidity;BME280_pressure;Samples;Min_cycle;Max_cycle;Signal;HPM_P1;HPM_P2
2024/01/15 00:01:26;;;;;;;;;;;2.80;99.90;;;;;;5032922;28;20061;-80
2024/01/15 00:03:52;;;;;;;;;;;2.70;99.90;;;;;;5033279;28;20388;-80
2024/01/15 00:06:17;;;;;;;;;;;2.60;99.90;;;;;;5031123;28;19980;-79
2024/01/15 00:08:43;;;;;;;;;;;2.60;99.90;;;;;;5024589;28;20061;-80
2024/01/15 00:11:08;;;;;;;;;;;2.50;99.90;;;;;;5031150;28;19967;-78
2024/01/15 00:13:34;;;;;;;;;;;2.40;99.90;;;;;;5033705;28;19934;-80
2024/01/15 00:15:59;;;;;;;;;;;2.40;99.90;;;;;;5030978;28;19982;-80
2024/01/15 00:18:25;;;;;;;;;;;2.30;99.90;;;;;;5022181;28;20379;-78
2024/01/15 00:20:50;;;;;;;;;;;2.30;99.90;;;;;;5031239;28;20111;-80
2024/01/15 00:23:16;;;;;;;;;;;2.30;99.90;;;;;;5041155;28;19949;-79
2024/01/15 00:25:41;;;;;;;;;;;2.30;99.90;;;;;;5031567;28;19958;-79
2024/01/15 00:28:07;;;;;;;;;;;2.30;99.90;;;;;;5026191;28;19946;-79
2024/01/15 00:30:32;;;;;;;;;;;2.10;99.90;;;;;;5029627;28;20000;-79
2024/01/15 00:32:58;;;;;;;;;;;2.10;99.90;;;;;;5029458;28;19983;-79
2024/01/15 00:35:23;;;;;;;;;;;2.10;99.90;;;;;;5028593;28;19937;-80
2024/01/15 00:37:49;;;;;;;;;;;2.00;99.90;;;;;;5036938;28;20379;-81
2024/01/15 00:40:14;;;;;;;;;;;1.90;99.90;;;;;;5030817;28;20380;-80
2024/01/15 00:42:40;;;;;;;;;;;1.90;99.90;;;;;;5033782;28;19930;-80
2024/01/15 00:45:07;;;;;;;;;;;1.80;99.90;;;;;;5035902;28;20034;-80
2024/01/15 00:47:33;;;;;;;;;;;1.80;99.90;;;;;;5029014;28;20001;-79
2024/01/15 00:49:59;;;;;;;;;;;1.80;99.90;;;;;;5031694;28;19926;-80
2024/01/15 00:52:24;;;;;;;;;;;1.70;99.90;;;;;;5030406;28;19928;-78
2024/01/15 00:54:50;;;;;;;;;;;1.70;99.90;;;;;;5031736;28;19933;-78
2024/01/15 00:57:15;;;;;;;;;;;1.70;99.90;;;;;;5031339;28;20323;-78
2024/01/15 00:59:41;;;;;;;;;;;1.60;99.90;;;;;;5030106;28;20022;-79
2024/01/15 01:02:06;;;;;;;;;;;1.60;99.90;;;;;;5027076;28;20337;-77
2024/01/15 01:04:32;;;;;;;;;;;1.60;99.90;;;;;;5033337;28;19952;-79
2024/01/15 01:06:57;;;;;;;;;;;1.50;99.90;;;;;;5034213;28;19943;-79
2024/01/15 01:09:29;;;;;;;;;;;1.40;99.90;;;;;;5034594;28;19944;-79
2024/01/15 01:11:54;;;;;;;;;;;1.40;99.90;;;;;;5032602;28;19953;-78
2024/01/15 01:14:20;;;;;;;;;;;1.30;99.90;;;;;;5028407;28;20418;-78
2024/01/15 01:16:45;;;;;;;;;;;1.30;99.90;;;;;;5024607;28;19962;-79
2024/01/15 01:19:11;;;;;;;;;;;1.30;99.90;;;;;;5022549;28;20280;-79
2024/01/15 01:21:36;;;;;;;;;;;1.30;99.90;;;;;;5034761;28;19999;-80
2024/01/15 01:24:02;;;;;;;;;;;1.20;99.90;;;;;;5034439;28;20013;-79
2024/01/15 01:26:27;;;;;;;;;;;1.20;99.90;;;;;;5039018;28;20375;-79
2024/01/15 01:28:53;;;;;;;;;;;1.10;99.90;;;;;;5033537;28;19991;-79
2024/01/15 01:31:18;;;;;;;;;;;1.00;99.90;;;;;;5036896;28;19938;-79
2024/01/15 01:33:44;;;;;;;;;;;0.90;99.90;;;;;;5044491;28;19935;-79
2024/01/15 01:36:09;;;;;;;;;;;0.90;99.90;;;;;;5035489;28;19944;-79
2024/01/15 01:38:35;;;;;;;;;;;0.90;99.90;;;;;;5036237;28;19927;-79
2024/01/15 01:41:01;;;;;;;;;;;0.90;99.90;;;;;;5030374;28;20327;-78
2024/01/15 01:43:26;;;;;;;;;;;0.90;99.90;;;;;;5032913;28;19931;-78
2024/01/15 01:45:52;;;;;;;;;;;0.70;99.90;;;;;;5031843;28;20053;-79
2024/01/15 01:48:18;;;;;;;;;;;0.70;99.90;;;;;;5025634;28;20390;-77
2024/01/15 01:50:44;;;;;;;;;;;0.70;99.90;;;;;;5031594;28;19937;-79
2024/01/15 01:53:09;;;;;;;;;;;0.60;99.90;;;;;;5017706;28;19986;-79
2024/01/15 01:55:36;;;;;;;;;;;0.60;99.90;;;;;;5033890;28;20465;-80
2024/01/15 01:58:01;;;;;;;;;;;0.60;99.90;;;;;;5037229;28;19921;-80
2024/01/15 02:00:27;;;;;;;;;;;0.50;99.90;;;;;;5030481;28;20294;-79
2024/01/15 02:02:53;;;;;;;;;;;0.40;99.90;;;;;;5035007;28;20282;-78
2024/01/15 02:05:20;;;;;;;;;;;0.30;99.90;;;;;;5039817;28;20021;-78
2024/01/15 02:07:45;;;;;;;;;;;0.30;99.90;;;;;;5041281;28;19933;-78
2024/01/15 02:10:11;;;;;;;;;;;0.20;99.90;;;;;;5057637;28;19939;-77
2024/01/15 02:12:36;;;;;;;;;;;0.20;99.90;;;;;;5057479;28;19947;-79
2024/01/15 02:15:02;;;;;;;;;;;0.10;99.90;;;;;;5055434;28;19916;-77
2024/01/15 02:17:28;;;;;;;;;;;0.10;99.90;;;;;;5051384;28;20007;-80
2024/01/15 02:19:53;;;;;;;;;;;0.00;99.90;;;;;;5057072;28;19939;-80
2024/01/15 02:22:19;;;;;;;;;;;0.00;99.90;;;;;;5037747;28;20382;-80
2024/01/15 02:24:44;;;;;;;;;;;0.10;99.90;;;;;;5039369;28;19930;-78
2024/01/15 02:27:10;;;;;;;;;;;0.10;99.90;;;;;;5033796;28;19943;-78
2024/01/15 02:29:35;;;;;;;;;;;0.00;99.90;;;;;;5041294;28;19935;-80
2024/01/15 02:32:04;;;;;;;;;;;-0.10;99.90;;;;;;5032750;28;20317;-80
2024/01/15 02:34:31;;;;;;;;;;;-0.30;99.90;;;;;;5039740;28;20299;-80
2024/01/15 02:36:57;;;;;;;;;;;-0.40;99.90;;;;;;5039284;28;19953;-80
2024/01/15 02:39:22;;;;;;;;;;;-0.40;99.90;;;;;;5041185;28;20078;-80
2024/01/15 02:41:48;;;;;;;;;;;-0.40;99.90;;;;;;5035600;28;19931;-81
2024/01/15 02:44:13;;;;;;;;;;;-0.40;99.90;;;;;;5028312;28;19944;-79
2024/01/15 02:46:39;;;;;;;;;;;-0.50;99.90;;;;;;5033399;28;20048;-80
2024/01/15 02:49:04;;;;;;;;;;;-0.60;99.90;;;;;;5030543;28;19925;-79
2024/01/15 02:51:30;;;;;;;;;;;-0.70;99.90;;;;;;5037594;28;19936;-80
2024/01/15 02:53:55;;;;;;;;;;;-0.70;99.90;;;;;;5031569;28;20298;-79
2024/01/15 02:56:21;;;;;;;;;;;-0.80;99.90;;;;;;5030965;28;20250;-79
2024/01/15 02:58:46;;;;;;;;;;;-0.80;99.90;;;;;;5030354;28;20003;-79
2024/01/15 03:01:12;;;;;;;;;;;-0.90;99.90;;;;;;5034707;28;20025;-79
2024/01/15 03:03:39;;;;;;;;;;;-0.90;99.90;;;;;;5036975;28;19930;-79
2024/01/15 03:06:05;;;;;;;;;;;-0.80;99.90;;;;;;5037489;28;19956;-80
2024/01/15 03:08:30;;;;;;;;;;;-0.70;99.90;;;;;;5038011;28;19954;-79
2024/01/15 03:10:56;;;;;;;;;;;-0.80;99.90;;;;;;5033946;28;21450;-79
2024/01/15 03:13:21;;;;;;;;;;;-0.80;99.90;;;;;;5025990;28;19940;-80
2024/01/15 03:15:47;;;;;;;;;;;-0.70;99.90;;;;;;5031085;28;19953;-80
2024/01/15 03:18:12;;;;;;;;;;;-0.70;99.90;;;;;;5030692;28;20028;-79
2024/01/15 03:20:38;;;;;;;;;;;-0.70;99.90;;;;;;5033548;28;20028;-80
2024/01/15 03:23:03;;;;;;;;;;;-0.80;99.90;;;;;;5033103;28;20029;-81
2024/01/15 03:25:29;;;;;;;;;;;-1.00;99.90;;;;;;5031944;28;19958;-81
2024/01/15 03:27:54;;;;;;;;;;;-1.00;99.90;;;;;;5028562;28;19952;-79
2024/01/15 03:30:20;;;;;;;;;;;-1.00;99.90;;;;;;5032935;28;19940;-79
2024/01/15 03:32:47;;;;;;;;;;;-1.00;99.90;;;;;;5032002;28;19932;-79
2024/01/15 03:35:12;;;;;;;;;;;-1.00;99.90;;;;;;5037567;28;19936;-79
2024/01/15 03:37:38;;;;;;;;;;;-1.00;99.90;;;;;;5031089;28;19924;-79
2024/01/15 03:40:04;;;;;;;;;;;-1.00;99.90;;;;;;5030940;28;19939;-79
2024/01/15 03:42:29;;;;;;;;;;;-1.00;99.90;;;;;;5030283;28;19937;-80
2024/01/15 03:44:55;;;;;;;;;;;-1.00;99.90;;;;;;5029965;28;20079;-79
2024/01/15 03:47:20;;;;;;;;;;;-0.80;99.90;;;;;;5024920;28;20693;-79
2024/01/15 03:49:46;;;;;;;;;;;-0.90;99.90;;;;;;5031076;28;19983;-79
2024/01/15 03:52:11;;;;;;;;;;;-0.80;99.90;;;;;;5036597;28;19929;-79
2024/01/15 03:54:37;;;;;;;;;;;-0.80;99.90;;;;;;5041619;28;20243;-78
2024/01/15 03:57:03;;;;;;;;;;;-0.70;99.90;;;;;;5031248;28;19953;-79
2024/01/15 03:59:28;;;;;;;;;;;-0.80;99.90;;;;;;5031801;28;19938;-80
2024/01/15 04:01:54;;;;;;;;;;;-0.80;99.90;;;;;;5028403;28;19936;-78
2024/01/15 04:04:19;;;;;;;;;;;-0.80;99.90;;;;;;5029923;28;19955;-78
2024/01/15 04:06:45;;;;;;;;;;;-0.90;99.90;;;;;;5038956;28;19946;-80
2024/01/15 04:09:12;;;;;;;;;;;-1.00;99.90;;;;;;5031755;28;19975;-79
2024/01/15 04:11:37;;;;;;;;;;;-1.10;99.90;;;;;;5032336;28;20018;-79
2024/01/15 04:14:03;;;;;;;;;;;-1.10;99.90;;;;;;5026518;28;19938;-79
2024/01/15 04:16:28;;;;;;;;;;;-1.20;99.90;;;;;;5035107;28;20397;-79
2024/01/15 04:18:54;;;;;;;;;;;-1.20;99.90;;;;;;5030860;28;20024;-79
2024/01/15 04:21:19;;;;;;;;;;;-1.20;99.90;;;;;;5032427;28;19938;-80
2024/01/15 04:23:45;;;;;;;;;;;-1.10;99.90;;;;;;5032533;28;20031;-79
2024/01/15 04:26:11;;;;;;;;;;;-1.10;99.90;;;;;;5028242;28;19938;-80
2024/01/15 04:28:36;;;;;;;;;;;-1.10;99.90;;;;;;5033225;28;19953;-79
2024/01/15 04:31:02;;;;;;;;;;;-1.20;99.90;;;;;;5032374;28;19998;-79
2024/01/15 04:33:27;;;;;;;;;;;-1.20;99.90;;;;;;5038960;28;20042;-79
2024/01/15 04:35:53;;;;;;;;;;;-1.30;99.90;;;;;;5039045;28;19954;-79
2024/01/15 04:38:18;;;;;;;;;;;-1.30;99.90;;;;;;5057608;28;19933;-79
2024/01/15 04:40:44;;;;;;;;;;;-1.30;99.90;;;;;;5051709;28;19928;-79
2024/01/15 04:43:09;;;;;;;;;;;-1.30;99.90;;;;;;5055851;28;20019;-80
2024/01/15 04:45:35;;;;;;;;;;;-1.40;99.90;;;;;;5058548;28;19981;-79
2024/01/15 04:48:00;;;;;;;;;;;-1.30;99.90;;;;;;5034045;28;20066;-79
2024/01/15 04:50:26;;;;;;;;;;;-1.20;99.90;;;;;;5038846;28;19940;-80
2024/01/15 04:52:51;;;;;;;;;;;-1.10;99.90;;;;;;5036433;28;20356;-80
2024/01/15 04:55:17;;;;;;;;;;;-1.00;99.90;;;;;;5038868;28;19931;-79
2024/01/15 04:57:42;;;;;;;;;;;-0.80;99.90;;;;;;5037837;28;19931;-79
2024/01/15 05:00:08;;;;;;;;;;;-0.70;99.90;;;;;;5033601;28;19941;-80
2024/01/15 05:02:34;;;;;;;;;;;-0.60;99.90;;;;;;5036961;28;20356;-79
2024/01/15 05:04:59;;;;;;;;;;;-0.40;99.90;;;;;;5035171;28;19938;-79
2024/01/15 05:07:25;;;;;;;;;;;-0.30;99.90;;;;;;5030236;28;20003;-79
2024/01/15 05:09:50;;;;;;;;;;;-0.10;99.90;;;;;;5033781;28;19947;-79
2024/01/15 05:12:16;;;;;;;;;;;0.00;99.90;;;;;;5032441;28;20405;-79
2024/01/15 05:14:41;;;;;;;;;;;0.00;99.90;;;;;;5037585;28;19974;-80
2024/01/15 05:17:07;;;;;;;;;;;0.10;99.90;;;;;;5034718;28;19988;-79
2024/01/15 05:19:32;;;;;;;;;;;0.20;99.90;;;;;;5031516;28;20169;-79
2024/01/15 05:21:58;;;;;;;;;;;0.30;99.90;;;;;;5027994;28;20376;-79
2024/01/15 05:24:23;;;;;;;;;;;0.30;99.90;;;;;;5038151;28;20381;-79
2024/01/15 05:26:49;;;;;;;;;;;0.30;99.90;;;;;;5029774;28;20458;-79
2024/01/15 05:29:14;;;;;;;;;;;0.30;99.90;;;;;;5029440;28;19949;-80
2024/01/15 05:31:40;;;;;;;;;;;0.20;99.90;;;;;;5030715;28;19929;-78
2024/01/15 05:34:05;;;;;;;;;;;0.30;99.90;;;;;;5035369;28;19943;-79
2024/01/15 05:36:31;;;;;;;;;;;0.30;99.90;;;;;;5027168;28;20008;-79
2024/01/15 05:38:56;;;;;;;;;;;0.40;99.90;;;;;;5035073;28;20562;-78
2024/01/15 05:41:22;;;;;;;;;;;0.40;99.90;;;;;;5033798;28;19934;-79
2024/01/15 05:43:47;;;;;;;;;;;0.40;99.90;;;;;;5038541;28;20112;-81
2024/01/15 05:46:13;;;;;;;;;;;0.40;99.90;;;;;;5044778;28;19963;-80
2024/01/15 05:48:39;;;;;;;;;;;0.50;99.90;;;;;;5045639;28;20062;-80
2024/01/15 05:51:05;;;;;;;;;;;0.50;99.90;;;;;;5041300;28;20017;-79
2024/01/15 05:53:30;;;;;;;;;;;0.40;99.90;;;;;;5042427;28;19988;-80
2024/01/15 05:55:56;;;;;;;;;;;0.40;99.90;;;;;;5042021;28;19990;-79
2024/01/15 05:58:22;;;;;;;;;;;0.30;99.90;;;;;;5039666;28;19957;-79
2024/01/15 06:00:49;;;;;;;;;;;0.40;99.90;;;;;;5034622;28;19938;-80
2024/01/15 06:03:15;;;;;;;;;;;0.40;99.90;;;;;;5036878;28;20155;-79
2024/01/15 06:05:40;;;;;;;;;;;0.40;99.90;;;;;;5034459;28;20234;-80
2024/01/15 06:08:06;;;;;;;;;;;0.50;99.90;;;;;;5031280;28;19942;-79
2024/01/15 06:10:31;;;;;;;;;;;0.40;99.90;;;;;;5034560;28;20412;-79
2024/01/15 06:12:57;;;;;;;;;;;0.40;99.90;;;;;;5036421;28;19986;-79
2024/01/15 06:15:23;;;;;;;;;;;0.30;99.90;;;;;;5037687;28;20038;-79
2024/01/15 06:17:48;;;;;;;;;;;0.20;99.90;;;;;;5039098;28;19931;-79
2024/01/15 06:20:14;;;;;;;;;;;0.20;99.90;;;;;;5035579;28;19937;-79
2024/01/15 06:22:39;;;;;;;;;;;0.10;99.90;;;;;;5036735;28;19945;-79
2024/01/15 06:25:06;;;;;;;;;;;0.10;99.90;;;;;;5032225;28;20052;-80
2024/01/15 06:27:32;;;;;;;;;;;0.00;99.90;;;;;;5038005;28;20147;-79
2024/01/15 06:29:57;;;;;;;;;;;0.00;99.90;;;;;;5035339;28;20481;-80
2024/01/15 06:32:23;;;;;;;;;;;0.00;99.90;;;;;;5036702;28;20365;-80
2024/01/15 06:34:48;;;;;;;;;;;0.00;99.90;;;;;;5037940;28;19928;-80
2024/01/15 06:37:14;;;;;;;;;;;0.00;99.90;;;;;;5029074;28;20462;-81
2024/01/15 06:39:39;;;;;;;;;;;0.00;99.90;;;;;;5031202;28;19934;-79
2024/01/15 06:42:05;;;;;;;;;;;0.30;99.90;;;;;;5031241;28;19935;-80
2024/01/15 06:44:30;;;;;;;;;;;0.30;99.90;;;;;;5032173;28;19952;-79
2024/01/15 06:46:57;;;;;;;;;;;0.40;99.90;;;;;;5036957;28;19939;-80
2024/01/15 06:49:23;;;;;;;;;;;0.40;99.90;;;;;;5040231;28;19941;-80
2024/01/15 06:51:48;;;;;;;;;;;0.40;99.90;;;;;;5039827;28;20082;-80
2024/01/15 06:54:14;;;;;;;;;;;0.40;99.90;;;;;;5033593;28;20308;-79
2024/01/15 06:56:39;;;;;;;;;;;0.40;99.90;;;;;;5040480;28;19950;-79
2024/01/15 06:59:05;;;;;;;;;;;0.40;99.90;;;;;;5035996;28;20502;-79
2024/01/15 07:01:30;;;;;;;;;;;0.50;99.90;;;;;;5038542;28;19935;-78
2024/01/15 07:03:56;;;;;;;;;;;0.60;99.90;;;;;;5033761;28;19936;-80
2024/01/15 07:06:21;;;;;;;;;;;0.60;99.90;;;;;;5034941;28;20023;-80
2024/01/15 07:08:47;;;;;;;;;;;0.50;99.90;;;;;;5038037;28;21049;-81
2024/01/15 07:11:12;;;;;;;;;;;0.60;99.90;;;;;;5054565;28;19928;-80
2024/01/15 07:13:38;;;;;;;;;;;0.60;99.90;;;;;;5052934;28;19932;-81
2024/01/15 07:16:03;;;;;;;;;;;0.50;99.90;;;;;;5049670;28;20124;-80
2024/01/15 07:18:29;;;;;;;;;;;0.60;99.90;;;;;;5058974;28;20260;-80
2024/01/15 07:20:54;;;;;;;;;;;0.50;99.90;;;;;;5051700;28;19943;-80
2024/01/15 07:23:20;;;;;;;;;;;0.50;99.90;;;;;;5036494;28;19938;-80
2024/01/15 07:25:46;;;;;;;;;;;0.40;99.90;;;;;;5032729;28;20408;-77
2024/01/15 07:28:11;;;;;;;;;;;0.50;99.90;;;;;;5033399;28;19939;-79
2024/01/15 07:30:38;;;;;;;;;;;0.40;99.90;;;;;;5031806;28;19936;-78
2024/01/15 07:33:04;;;;;;;;;;;0.40;99.90;;;;;;5030899;28;19933;-79
2024/01/15 07:35:30;;;;;;;;;;;0.40;99.90;;;;;;5023880;28;20211;-80
2024/01/15 07:37:55;;;;;;;;;;;0.40;99.90;;;;;;5027353;28;19932;-80
2024/01/15 07:40:21;;;;;;;;;;;0.40;99.90;;;;;;5023306;28;19938;-81
2024/01/15 07:42:47;;;;;;;;;;;0.30;99.90;;;;;;5028029;28;19944;-81
2024/01/15 07:45:12;;;;;;;;;;;0.20;99.90;;;;;;5023323;28;19947;-80
2024/01/15 07:47:38;;;;;;;;;;;0.10;99.90;;;;;;5021978;28;19932;-80
2024/01/15 07:50:04;;;;;;;;;;;0.10;99.90;;;;;;5025740;28;19942;-81
2024/01/15 07:52:30;;;;;;;;;;;0.10;99.90;;;;;;5019190;28;19937;-80
2024/01/15 07:54:56;;;;;;;;;;;0.10;99.90;;;;;;5019673;28;19944;-81
2024/01/15 07:57:22;;;;;;;;;;;0.10;99.90;;;;;;5028949;28;19935;-81
2024/01/15 07:59:48;;;;;;;;;;;0.00;99.90;;;;;;5029116;28;20274;-81
2024/01/15 08:02:13;;;;;;;;;;;0.00;99.90;;;;;;5029824;28;19976;-80
2024/01/15 08:04:39;;;;;;;;;;;0.10;99.90;;;;;;5025689;28;20027;-80
2024/01/15 08:07:06;;;;;;;;;;;0.10;99.90;;;;;;5023743;28;20012;-80
2024/01/15 08:09:32;;;;;;;;;;;0.00;99.90;;;;;;5024902;28;19936;-80
2024/01/15 08:11:58;;;;;;;;;;;0.00;99.90;;;;;;5026413;28;19964;-81
2024/01/15 08:14:23;;;;;;;;;;;0.00;99.90;;;;;;5026249;28;19939;-82
2024/01/15 08:16:49;;;;;;;;;;;0.00;99.90;;;;;;5024461;28;19946;-82
2024/01/15 08:19:15;;;;;;;;;;;-0.10;99.90;;;;;;5024624;28;20351;-81
2024/01/15 08:21:40;;;;;;;;;;;0.00;99.90;;;;;;5021799;28;19944;-80
2024/01/15 08:24:06;;;;;;;;;;;0.00;99.90;;;;;;5018574;28;19933;-81
2024/01/15 08:26:32;;;;;;;;;;;0.00;99.90;;;;;;5020735;28;19967;-80
2024/01/15 08:28:58;;;;;;;;;;;0.10;99.90;;;;;;5025408;28;20057;-81
2024/01/15 08:31:23;;;;;;;;;;;0.00;99.90;;;;;;5021793;28;19933;-82
2024/01/15 08:33:49;;;;;;;;;;;0.00;99.90;;;;;;5015766;28;20230;-80
2024/01/15 08:36:14;;;;;;;;;;;0.00;99.90;;;;;;5021495;28;20192;-81
2024/01/15 08:38:40;;;;;;;;;;;0.10;99.90;;;;;;5021983;28;19941;-81
2024/01/15 08:41:06;;;;;;;;;;;0.10;99.90;;;;;;5019593;28;21024;-80
2024/01/15 08:43:31;;;;;;;;;;;0.20;99.90;;;;;;5015211;28;20528;-79
2024/01/15 08:45:57;;;;;;;;;;;0.30;99.90;;;;;;5017543;28;19959;-79
2024/01/15 08:48:27;;;;;;;;;;;0.30;99.90;;;;;;5020796;28;19939;-88
2024/01/15 08:50:53;;;;;;;;;;;0.40;99.90;;;;;;5025036;28;19942;-88
2024/01/15 08:53:24;;;;;;;;;;;0.50;99.90;;;;;;5025327;28;20305;-86
2024/01/15 08:55:51;;;;;;;;;;;0.50;99.90;;;;;;5026553;28;19996;-81
2024/01/15 08:58:17;;;;;;;;;;;0.50;99.90;;;;;;5019551;28;19938;-84
2024/01/15 09:00:43;;;;;;;;;;;0.70;99.90;;;;;;5016479;28;19938;-87
2024/01/15 09:03:08;;;;;;;;;;;0.70;99.90;;;;;;5007111;28;20018;-80
2024/01/15 09:05:34;;;;;;;;;;;0.80;99.90;;;;;;5009340;28;20019;-82
2024/01/15 09:08:00;;;;;;;;;;;0.80;99.90;;;;;;5020609;28;19928;-82
2024/01/15 09:10:25;;;;;;;;;;;0.80;99.90;;;;;;5011408;28;20213;-83
2024/01/15 09:12:51;;;;;;;;;;;0.90;99.90;;;;;;5018751;28;20153;-82
2024/01/15 09:15:16;;;;;;;;;;;0.90;99.90;;;;;;5031601;28;20123;-87
2024/01/15 09:17:42;;;;;;;;;;;1.00;99.90;;;;;;5028059;28;20630;-85
2024/01/15 09:20:10;;;;;;;;;;;1.10;99.90;;;;;;5015221;28;19950;-87
2024/01/15 09:22:41;;;;;;;;;;;1.10;99.90;;;;;;5012916;28;19939;-83
2024/01/15 09:25:07;;;;;;;;;;;1.20;99.90;;;;;;5021383;28;19975;-84
2024/01/15 09:27:35;;;;;;;;;;;1.30;99.90;;;;;;5043370;28;20198;-86
2024/01/15 09:30:00;;;;;;;;;;;1.40;99.90;;;;;;5043400;28;20061;-85
2024/01/15 09:32:26;;;;;;;;;;;1.50;99.90;;;;;;5053345;28;20017;-84
2024/01/15 09:34:51;;;;;;;;;;;2.10;99.90;;;;;;5058068;28;20008;-86
2024/01/15 09:37:17;;;;;;;;;;;3.40;99.90;;;;;;5049310;28;19934;-80
2024/01/15 09:39:43;;;;;;;;;;;4.40;99.90;;;;;;5055526;28;19933;-88
2024/01/15 09:42:10;;;;;;;;;;;5.10;94.40;;;;;;5050430;28;20154;-91
2024/01/15 09:44:36;;;;;;;;;;;5.80;84.90;;;;;;5051571;28;20337;-86
2024/01/15 09:47:02;;;;;;;;;;;6.50;79.50;;;;;;5053504;28;19938;-89
2024/01/15 09:49:28;;;;;;;;;;;7.60;63.60;;;;;;5059080;28;20039;-90
2024/01/15 09:51:54;;;;;;;;;;;7.40;60.70;;;;;;5056955;28;20140;-86
2024/01/15 09:54:23;;;;;;;;;;;7.60;62.50;;;;;;5040235;28;19943;-88
2024/01/15 09:56:49;;;;;;;;;;;8.30;57.90;;;;;;5033426;28;20166;-91
2024/01/15 09:59:16;;;;;;;;;;;8.60;56.30;;;;;;5038502;28;20050;-89
2024/01/15 10:01:43;;;;;;;;;;;8.50;57.00;;;;;;5032669;28;19932;-88
2024/01/15 10:04:08;;;;;;;;;;;8.40;57.80;;;;;;5023549;28;21847;-89
2024/01/15 10:06:39;;;;;;;;;;;8.20;58.10;;;;;;5040126;28;19953;-91
2024/01/15 10:09:14;;;;;;;;;;;9.20;57.70;;;;;;5033633;28;19938;-87
2024/01/15 10:11:41;;;;;;;;;;;8.20;56.80;;;;;;5026076;28;20038;-86
2024/01/15 10:14:08;;;;;;;;;;;8.00;61.20;;;;;;5032046;28;19935;-92
2024/01/15 10:16:34;;;;;;;;;;;7.80;62.50;;;;;;5036861;28;19942;-87
2024/01/15 10:19:12;;;;;;;;;;;8.60;58.30;;;;;;5040266;28;19931;-88
2024/01/15 10:21:38;;;;;;;;;;;8.70;55.10;;;;;;5034816;28;20312;-87
2024/01/15 10:24:07;;;;;;;;;;;8.10;57.80;;;;;;5028997;28;20811;-87
2024/01/15 10:26:45;;;;;;;;;;;7.70;59.90;;;;;;5031817;28;20002;-90
2024/01/15 10:29:11;;;;;;;;;;;8.70;60.50;;;;;;5025727;28;19942;-88
2024/01/15 10:31:43;;;;;;;;;;;10.60;50.20;;;;;;5024096;28;19941;-86
2024/01/15 10:34:10;;;;;;;;;;;11.40;48.80;;;;;;5015875;28;20325;-83
2024/01/15 10:36:35;;;;;;;;;;;10.70;47.20;;;;;;5005740;28;19953;-80
2024/01/15 10:39:01;;;;;;;;;;;11.70;46.50;;;;;;5027850;28;19935;-83
2024/01/15 10:41:26;;;;;;;;;;;12.40;45.50;;;;;;5027038;28;19960;-89
2024/01/15 10:43:52;;;;;;;;;;;12.20;45.00;;;;;;5028207;28;19953;-82
2024/01/15 10:46:17;;;;;;;;;;;11.00;46.00;;;;;;5017497;28;20009;-80
2024/01/15 10:48:43;;;;;;;;;;;12.40;44.70;;;;;;5009678;28;19931;-81
2024/01/15 10:51:13;;;;;;;;;;;11.80;43.80;;;;;;5024509;28;19938;-92
2024/01/15 10:53:40;;;;;;;;;;;12.10;42.60;;;;;;5038951;28;20619;-90
2024/01/15 11:04:59;;;;;;;;;;;11.80;43.40;;;;;;5088828;23;19967;-86
2024/01/15 11:07:26;;;;;;;;;;;12.20;42.70;;;;;;4989599;28;19940;-85
2024/01/15 11:09:51;;;;;;;;;;;14.10;41.70;;;;;;4987403;28;19936;-86
2024/01/15 11:12:19;;;;;;;;;;;15.50;35.80;;;;;;4988882;28;19950;-82
2024/01/15 11:14:46;;;;;;;;;;;14.30;35.30;;;;;;4984576;28;20234;-81
2024/01/15 11:17:12;;;;;;;;;;;14.00;38.30;;;;;;4981462;28;20319;-82
2024/01/15 11:19:42;;;;;;;;;;;15.50;35.20;;;;;;4976458;28;19932;-88
2024/01/15 11:22:09;;;;;;;;;;;17.00;33.20;;;;;;4983900;28;20286;-83
2024/01/15 11:24:41;;;;;;;;;;;18.30;33.40;;;;;;4984420;28;19932;-87
2024/01/15 11:27:07;;;;;;;;;;;18.90;29.80;;;;;;4981008;28;19979;-87
2024/01/15 11:29:35;;;;;;;;;;;19.00;29.30;;;;;;4975571;28;20304;-86
2024/01/15 11:32:02;;;;;;;;;;;19.10;31.60;;;;;;4984629;28;19940;-85
2024/01/15 11:34:48;;;;;;;;;;;16.70;29.10;;;;;;4991549;28;19947;-89
2024/01/15 11:37:23;;;;;;;;;;;15.70;32.80;;;;;;4998303;28;19947;-90
2024/01/15 11:39:51;;;;;;;;;;;13.70;36.40;;;;;;5010336;28;19930;-90
2024/01/15 11:42:18;;;;;;;;;;;13.70;36.40;;;;;;5004261;28;20072;-88
2024/01/15 11:44:44;;;;;;;;;;;13.20;37.80;;;;;;5008892;28;19935;-81
2024/01/15 11:47:13;;;;;;;;;;;14.20;38.90;;;;;;5015744;28;19998;-90
2024/01/15 11:49:38;;;;;;;;;;;16.50;37.00;;;;;;4996248;28;20081;-83
2024/01/15 11:52:04;;;;;;;;;;;17.70;31.40;;;;;;4990984;28;20520;-82
2024/01/15 11:54:32;;;;;;;;;;;18.70;32.30;;;;;;4982726;28;20434;-82
2024/01/15 11:57:00;;;;;;;;;;;16.60;29.50;;;;;;4990725;28;19938;-85
2024/01/15 11:59:28;;;;;;;;;;;13.10;34.60;;;;;;4991314;28;20054;-89
2024/01/15 12:01:54;;;;;;;;;;;12.40;40.20;;;;;;4992247;28;21596;-90
2024/01/15 12:04:22;;;;;;;;;;;13.60;38.10;;;;;;4981280;28;19947;-84
2024/01/15 12:06:48;;;;;;;;;;;14.90;34.40;;;;;;4988733;28;20003;-84
2024/01/15 12:09:14;;;;;;;;;;;14.90;37.70;;;;;;4989802;28;19949;-86
2024/01/15 12:11:41;;;;;;;;;;;16.10;34.10;;;;;;4978460;28;19944;-84
2024/01/15 12:14:07;;;;;;;;;;;15.60;32.60;;;;;;4976875;28;19957;-87
2024/01/15 12:16:34;;;;;;;;;;;14.90;35.50;;;;;;4986882;28;20305;-79
2024/01/15 12:19:00;;;;;;;;;;;16.00;34.90;;;;;;4982046;28;19930;-81
2024/01/15 12:21:26;;;;;;;;;;;15.60;33.50;;;;;;4976483;28;20335;-81
2024/01/15 12:23:52;;;;;;;;;;;15.70;31.90;;;;;;4990242;28;20148;-87
2024/01/15 12:26:18;;;;;;;;;;;17.20;33.00;;;;;;4978824;28;20560;-86
2024/01/15 12:28:43;;;;;;;;;;;17.70;33.70;;;;;;4986119;28;19987;-89
2024/01/15 12:31:09;;;;;;;;;;;16.90;28.20;;;;;;4990036;28;20482;-80
2024/01/15 12:33:34;;;;;;;;;;;13.90;33.10;;;;;;4976847;28;20158;-83
2024/01/15 12:39:00;;;;;;;;;;;14.90;35.10;;;;;;4981317;28;19940;-83
2024/01/15 12:41:49;;;;;;;;;;;13.90;34.70;;;;;;4991469;28;19979;-87
2024/01/15 12:44:15;;;;;;;;;;;13.30;37.40;;;;;;4981666;28;20048;-84
2024/01/15 12:46:41;;;;;;;;;;;13.40;33.40;;;;;;4991654;28;19951;-86
2024/01/15 12:49:07;;;;;;;;;;;13.50;34.70;;;;;;4984709;28;19950;-84
2024/01/15 12:51:34;;;;;;;;;;;12.00;35.30;;;;;;4998968;28;19977;-86
2024/01/15 12:54:00;;;;;;;;;;;11.60;37.20;;;;;;4982804;28;19935;-85
2024/01/15 12:56:26;;;;;;;;;;;12.30;35.60;;;;;;4983863;28;19942;-86
2024/01/15 12:58:51;;;;;;;;;;;12.50;33.70;;;;;;4991566;28;20625;-87
2024/01/15 13:01:23;;;;;;;;;;;12.00;36.80;;;;;;4992878;28;19922;-91
2024/01/15 13:03:49;;;;;;;;;;;12.10;38.10;;;;;;4994517;28;20350;-89
2024/01/15 13:06:14;;;;;;;;;;;12.70;35.90;;;;;;5008217;28;20038;-87
2024/01/15 13:08:40;;;;;;;;;;;13.80;36.70;;;;;;4992504;28;20043;-84
2024/01/15 13:11:05;;;;;;;;;;;16.20;33.90;;;;;;4989591;28;19947;-86
2024/01/15 13:13:34;;;;;;;;;;;17.20;30.80;;;;;;4988355;28;20022;-88
2024/01/15 13:16:00;;;;;;;;;;;18.90;29.60;;;;;;4983575;28;20090;-90
2024/01/15 13:18:25;;;;;;;;;;;19.30;27.90;;;;;;4986024;28;20379;-85
2024/01/15 13:20:51;;;;;;;;;;;18.10;29.40;;;;;;4988127;28;20042;-89
2024/01/15 13:23:16;;;;;;;;;;;16.60;28.50;;;;;;4986190;28;19970;-83
2024/01/15 13:25:42;;;;;;;;;;;18.00;30.90;;;;;;4980078;28;20580;-86
2024/01/15 13:28:08;;;;;;;;;;;19.40;28.80;;;;;;4986686;28;19942;-84
2024/01/15 13:30:34;;;;;;;;;;;18.00;27.40;;;;;;4979862;28;20381;-87
2024/01/15 13:33:04;;;;;;;;;;;17.10;29.20;;;;;;4982691;28;19928;-82
2024/01/15 13:35:29;;;;;;;;;;;16.90;29.90;;;;;;4985566;28;19933;-91
2024/01/15 13:37:55;;;;;;;;;;;17.70;30.10;;;;;;4984179;28;20324;-85
2024/01/15 13:40:20;;;;;;;;;;;18.40;27.50;;;;;;4998524;28;20114;-90
2024/01/15 13:42:47;;;;;;;;;;;17.10;29.90;;;;;;5011194;28;19944;-89
2024/01/15 13:45:14;;;;;;;;;;;18.00;29.50;;;;;;5011254;28;19959;-86
2024/01/15 13:47:40;;;;;;;;;;;18.40;26.80;;;;;;5010732;28;19953;-85
2024/01/15 13:50:06;;;;;;;;;;;16.60;28.00;;;;;;5008955;28;19934;-84
2024/01/15 13:52:32;;;;;;;;;;;14.80;29.40;;;;;;4997261;28;19975;-87
2024/01/15 13:54:58;;;;;;;;;;;13.70;31.00;;;;;;4979216;28;19946;-85
2024/01/15 13:57:23;;;;;;;;;;;14.60;31.80;;;;;;4983314;28;19973;-84
2024/01/15 13:59:49;;;;;;;;;;;14.60;29.70;;;;;;4986113;28;20386;-89
2024/01/15 14:02:14;;;;;;;;;;;14.90;29.40;;;;;;4983142;28;19938;-85
2024/01/15 14:04:41;;;;;;;;;;;13.30;31.40;;;;;;4989082;28;20592;-86
2024/01/15 14:07:06;;;;;;;;;;;12.40;33.50;;;;;;4996496;28;19942;-84
2024/01/15 14:09:36;;;;;;;;;;;13.20;36.20;;;;;;4986577;28;20448;-88
2024/01/15 14:12:02;;;;;;;;;;;12.50;33.40;;;;;;4990788;28;20103;-88
2024/01/15 14:14:28;;;;;;;;;;;12.30;36.30;;;;;;4990806;28;19953;-84
2024/01/15 14:16:53;;;;;;;;;;;14.80;36.20;;;;;;4997546;28;19933;-85
2024/01/15 14:19:20;;;;;;;;;;;16.60;30.90;;;;;;4992516;28;20357;-83
2024/01/15 14:21:46;;;;;;;;;;;16.50;30.10;;;;;;4985453;28;20938;-85
2024/01/15 14:24:11;;;;;;;;;;;17.40;28.20;;;;;;4991505;28;20021;-83
2024/01/15 14:26:37;;;;;;;;;;;16.90;28.20;;;;;;4993164;28;20453;-84
2024/01/15 14:29:02;;;;;;;;;;;14.90;32.40;;;;;;4990412;28;19976;-85